Clinton, IA

6:09 AM CDT on August 18, 2017 (GMT -0500)
Clinton Municipal

Weather History for KCWI - January, 2014

Change the Weather History Date:

Monday, January 27, 2014

  Actual Average Record
Temperature  
Mean Temperature -6 °F -  
Max Temperature 0 °F 27 °F 62 °F (2002)
Min Temperature -11 °F 11 °F -16 °F (1976)
Degree Days  
Heating Degree Days 70    
Moisture  
Dew Point -13 °F    
Average Humidity 69    
Maximum Humidity 84    
Minimum Humidity 54    
Precipitation  
Precipitation 0.00 in - - ()
Sea Level Pressure  
Sea Level Pressure 30.33 in    
Wind  
Wind Speed 21 mph (WNW)    
Max Wind Speed 28 mph    
Max Gust Speed 34 mph    
Visibility 8 miles    
Events      
Averages and records for this station are not official NWS values.
T = Trace of Precipitation, MM = Missing Value Source: NWS Daily Summary

Daily Weather History Graph

Daily Weather History Graph

Search for Another Location

Airport or City:

Trip Planner

Search our weather history database for the weather conditions in past years. The results will help you decide how hot, cold, wet, or windy it might be!

Date:

Astronomy

Jan. 27, 2014 Rise Set
Actual Time 7:18 AM CST 5:10 PM CST
Civil Twilight 6:48 AM CST 5:40 PM CST
Nautical Twilight 6:14 AM CST 6:13 PM CST
Astronomical Twilight 5:42 AM CST 6:46 PM CST
Moon 4:00 AM CST (1/27) 1:55 PM CST (1/27)
Length of Visible Light 10h 51m
Length of Day
9h 51m
Waning Crescent, 14% of the Moon is Illuminated
Jan 27
Waning Crescent
Jan 30
New
Feb 6
First Quarter
Feb 14
Full
Feb 22
Last Quarter

Hourly Weather History & Observations

Time (CST) Temp. Windchill Dew Point Humidity Pressure Visibility Wind Dir Wind Speed Gust Speed Precip Events Conditions
12:15 AM -0.4 °F -23.3 °F -7.6 °F 72% 30.03 in 5.0 mi WNW 21.9 mph - N/A   Scattered Clouds
12:35 AM -0.4 °F -23.8 °F -7.6 °F 72% 30.05 in 5.0 mi WNW 23.0 mph 28.8 mph N/A   Partly Cloudy
12:55 AM -0.4 °F -24.7 °F -7.6 °F 72% 30.06 in 4.0 mi WNW 25.3 mph 31.1 mph N/A   Clear
1:15 AM -0.4 °F -25.6 °F -5.8 °F 78% 30.07 in 2.0 mi WNW 27.6 mph 32.2 mph N/A   Mostly Cloudy
1:35 AM -0.4 °F -25.2 °F -7.6 °F 72% 30.08 in 4.0 mi NW 26.5 mph 31.1 mph N/A   Partly Cloudy
1:55 AM -2.2 °F -26.2 °F -9.4 °F 71% 30.09 in 5.0 mi WNW 23.0 mph - N/A   Clear
2:15 AM -2.2 °F -27.1 °F -9.4 °F 71% 30.11 in 3.0 mi WNW 25.3 mph 34.5 mph N/A   Clear
2:35 AM -2.2 °F -25.7 °F -9.4 °F 71% 30.12 in 5.0 mi WNW 21.9 mph 28.8 mph N/A   Clear
2:55 AM -2.2 °F -25.7 °F -7.6 °F 78% 30.13 in 4.0 mi WNW 21.9 mph 28.8 mph N/A   Partly Cloudy
3:15 AM -2.2 °F -26.7 °F -7.6 °F 78% 30.15 in 5.0 mi WNW 24.2 mph - N/A   Clear
3:35 AM -2.2 °F -26.7 °F -9.4 °F 71% 30.16 in 2.5 mi WNW 24.2 mph - N/A   Partly Cloudy
3:55 AM -2.2 °F -26.7 °F -9.4 °F 71% 30.16 in 4.0 mi WNW 24.2 mph 28.8 mph N/A   Mostly Cloudy
4:15 AM -4.0 °F -29.6 °F -9.4 °F 78% 30.17 in 3.0 mi WNW 25.3 mph 31.1 mph N/A   Mostly Cloudy
4:35 AM -4.0 °F -29.6 °F -11.2 °F 71% 30.18 in 7.0 mi WNW 25.3 mph 28.8 mph N/A   Partly Cloudy
4:55 AM -4.0 °F -28.6 °F -9.4 °F 78% 30.19 in 5.0 mi WNW 23.0 mph 26.5 mph N/A   Mostly Cloudy
5:15 AM -4.0 °F -27.6 °F -11.2 °F 71% 30.20 in 9.0 mi NW 20.7 mph 24.2 mph N/A   Mostly Cloudy
5:35 AM -4.0 °F -26.4 °F -11.2 °F 71% 30.20 in 10.0 mi NW 18.4 mph 26.5 mph N/A   Scattered Clouds
5:55 AM -5.8 °F -31.0 °F -11.2 °F 77% 30.22 in 10.0 mi WNW 23.0 mph 27.6 mph N/A   Partly Cloudy
6:15 AM -5.8 °F -32.0 °F -9.4 °F 84% 30.22 in 5.0 mi WNW 25.3 mph - N/A   Scattered Clouds
6:35 AM -5.8 °F -29.4 °F -14.8 °F 65% 30.23 in 9.0 mi WNW 19.6 mph - N/A   Clear
6:55 AM -5.8 °F -30.5 °F -14.8 °F 65% 30.25 in 10.0 mi WNW 21.9 mph 27.6 mph N/A   Clear
7:15 AM -7.6 °F -31.7 °F -14.8 °F 71% 30.26 in 9.0 mi NW 19.6 mph 25.3 mph N/A   Clear
7:35 AM -7.6 °F -32.3 °F -14.8 °F 71% 30.28 in 7.0 mi WNW 20.7 mph - N/A   Clear
7:55 AM -7.6 °F -30.5 °F -16.6 °F 65% 30.29 in 9.0 mi WNW 17.3 mph - N/A   Clear
8:15 AM -7.6 °F -32.3 °F -14.8 °F 71% 30.30 in 10.0 mi WNW 20.7 mph - N/A   Clear
8:35 AM -7.6 °F -34.4 °F -14.8 °F 71% 30.31 in 7.0 mi WNW 25.3 mph - N/A   Partly Cloudy
8:55 AM -7.6 °F -31.7 °F -14.8 °F 71% 30.31 in 7.0 mi NW 19.6 mph - N/A   Partly Cloudy
9:15 AM -7.6 °F -34.8 °F -14.8 °F 71% 30.31 in 3.0 mi NW 26.5 mph - N/A   Clear
9:35 AM -5.8 °F -30.5 °F -14.8 °F 65% 30.34 in 8.0 mi NW 21.9 mph - N/A   Clear
9:55 AM -5.8 °F -31.5 °F -14.8 °F 65% 30.35 in 5.0 mi WNW 24.2 mph - N/A   Clear
10:15 AM -5.8 °F -29.9 °F -14.8 °F 65% 30.36 in 9.0 mi WNW 20.7 mph - N/A   Clear
10:35 AM -5.8 °F -32.0 °F -14.8 °F 65% 30.36 in 5.0 mi NW 25.3 mph - N/A   Clear
10:55 AM -5.8 °F -31.0 °F -13.0 °F 71% 30.37 in 9.0 mi WNW 23.0 mph 26.5 mph N/A   Clear
11:15 AM -5.8 °F -31.5 °F -14.8 °F 65% 30.38 in 4.0 mi WNW 24.2 mph - N/A   Partly Cloudy
11:35 AM -5.8 °F -30.5 °F -13.0 °F 71% 30.37 in 5.0 mi NW 21.9 mph 27.6 mph N/A   Partly Cloudy
11:55 AM -5.8 °F -31.0 °F -14.8 °F 65% 30.37 in 8.0 mi NW 23.0 mph - N/A   Clear
12:15 PM -5.8 °F -30.5 °F -14.8 °F 65% 30.38 in 7.0 mi NW 21.9 mph - N/A   Partly Cloudy
12:35 PM -5.8 °F -28.8 °F -14.8 °F 65% 30.38 in 8.0 mi WNW 18.4 mph - N/A   Partly Cloudy
12:55 PM -5.8 °F -30.5 °F -13.0 °F 71% 30.38 in 10.0 mi WNW 21.9 mph - N/A   Clear
1:15 PM -5.8 °F -28.8 °F -14.8 °F 65% 30.38 in 10.0 mi WNW 18.4 mph - N/A   Clear
1:35 PM -4.0 °F -28.1 °F -14.8 °F 60% 30.38 in 9.0 mi WNW 21.9 mph - N/A   Clear
1:55 PM -4.0 °F -27.0 °F -11.2 °F 71% 30.39 in 10.0 mi WNW 19.6 mph - N/A   Clear
2:15 PM -2.2 °F -24.7 °F -13.0 °F 60% 30.39 in 10.0 mi WNW 19.6 mph - N/A   Clear
2:35 PM -2.2 °F -25.2 °F -11.2 °F 66% 30.39 in 8.0 mi WNW 20.7 mph - N/A   Clear
2:55 PM -2.2 °F -25.7 °F -13.0 °F 60% 30.40 in 9.0 mi WNW 21.9 mph - N/A   Clear
3:15 PM -2.2 °F -25.2 °F -14.8 °F 55% 30.41 in 10.0 mi WNW 20.7 mph - N/A   Clear
3:35 PM -2.2 °F -23.5 °F -13.0 °F 60% 30.41 in 10.0 mi WNW 17.3 mph - N/A   Clear
3:55 PM -4.0 °F -27.0 °F -14.8 °F 60% 30.41 in 10.0 mi WNW 19.6 mph - N/A   Clear
4:15 PM -4.0 °F -26.4 °F -14.8 °F 60% 30.42 in 10.0 mi WNW 18.4 mph - N/A   Clear
4:35 PM -4.0 °F -25.8 °F -14.8 °F 60% 30.43 in 10.0 mi WNW 17.3 mph - N/A   Clear
4:55 PM -5.8 °F -27.5 °F -14.8 °F 65% 30.43 in 10.0 mi WNW 16.1 mph - N/A   Clear
5:15 PM -5.8 °F -28.2 °F -14.8 °F 65% 30.43 in 10.0 mi WNW 17.3 mph - N/A   Clear
5:35 PM -5.8 °F -26.8 °F -14.8 °F 65% 30.44 in 10.0 mi WNW 15.0 mph - N/A   Clear
5:55 PM -5.8 °F -25.2 °F -14.8 °F 65% 30.44 in 10.0 mi West 12.7 mph - N/A   Clear
6:15 PM -7.6 °F -28.3 °F -14.8 °F 71% 30.45 in 10.0 mi WNW 13.8 mph - N/A   Clear
6:35 PM -7.6 °F -26.6 °F -14.8 °F 71% 30.45 in 10.0 mi NW 11.5 mph - N/A   Clear
6:55 PM -7.6 °F -25.7 °F -14.8 °F 71% 30.46 in 10.0 mi WNW 10.4 mph - N/A   Clear
7:15 PM -7.6 °F -28.3 °F -14.8 °F 71% 30.45 in 10.0 mi NW 13.8 mph - N/A   Clear
7:35 PM -7.6 °F -27.5 °F -16.6 °F 65% 30.46 in 10.0 mi NW 12.7 mph - N/A   Clear
7:55 PM -7.6 °F -24.6 °F -14.8 °F 71% 30.48 in 10.0 mi WNW 9.2 mph - N/A   Clear
8:15 PM -7.6 °F -20.6 °F -16.6 °F 65% 30.47 in 10.0 mi WNW 5.8 mph - N/A   Clear
8:35 PM -9.4 °F -22.7 °F -16.6 °F 71% 30.47 in 10.0 mi WNW 5.8 mph - N/A   Clear
8:55 PM -9.4 °F -20.9 °F -14.8 °F 77% 30.48 in 10.0 mi NW 4.6 mph - N/A   Clear
9:15 PM -9.4 °F -26.8 °F -16.6 °F 71% 30.47 in 10.0 mi NW 9.2 mph - N/A   Clear
9:35 PM -7.6 °F -28.3 °F -14.8 °F 71% 30.46 in 10.0 mi NNW 13.8 mph - N/A   Clear
9:55 PM -7.6 °F -25.7 °F -14.8 °F 71% 30.47 in 10.0 mi NW 10.4 mph - N/A   Clear
10:15 PM -9.4 °F -20.9 °F -16.6 °F 71% 30.47 in 10.0 mi WNW 4.6 mph - N/A   Clear
10:35 PM -9.4 °F -25.6 °F -16.6 °F 71% 30.46 in 10.0 mi WNW 8.1 mph - N/A   Clear
10:55 PM -9.4 °F -24.3 °F -16.6 °F 71% 30.46 in 10.0 mi WNW 6.9 mph - N/A   Clear
11:15 PM -9.4 °F -25.6 °F -16.6 °F 71% 30.47 in 10.0 mi West 8.1 mph - N/A   Clear
11:35 PM -11.2 °F -24.8 °F -22.0 °F 59% 30.48 in 10.0 mi West 5.8 mph - N/A   Clear
11:55 PM -11.2 °F -26.4 °F -23.8 °F 54% 30.48 in 10.0 mi West 6.9 mph - N/A   Clear